Time;durP1;ratioP1;P1;durP2;ratioP2;P2;SDS_P1;SDS_P2;PMS_P1;PMS_P2;Temp;Humidity;BMP_temperature;BMP_pressure;BME280_temperature;BME280_humidity;BME280_pressure;Samples;Min_cycle;Max_cycle;Signal;HPM_P1;HPM_P2
2022/06/14 00:04:19;;;;;;;3.75;2.30;;;;;;;;;;10353551;28;20038;-67
2022/06/14 00:09:42;;;;;;;2.90;1.95;;;;;;;;;;10354049;28;20256;-67
2022/06/14 00:14:44;;;;;;;3.27;2.07;;;;;;;;;;10365903;28;20211;-67
2022/06/14 00:19:47;;;;;;;4.22;2.20;;;;;;;;;;10365652;28;20038;-67
2022/06/14 00:24:51;;;;;;;2.72;2.05;;;;;;;;;;10354935;28;20062;-67
2022/06/14 00:29:54;;;;;;;2.35;2.15;;;;;;;;;;10367146;28;20071;-67
2022/06/14 00:34:56;;;;;;;3.78;1.83;;;;;;;;;;10329337;28;20051;-66
2022/06/14 00:40:00;;;;;;;2.72;2.05;;;;;;;;;;10348409;28;20077;-66
2022/06/14 00:45:06;;;;;;;8.82;2.80;;;;;;;;;;10341312;28;20122;-67
2022/06/14 00:50:16;;;;;;;3.05;2.58;;;;;;;;;;10344102;28;20380;-67
2022/06/14 00:55:24;;;;;;;2.45;2.25;;;;;;;;;;10352435;28;20050;-68
2022/06/14 01:00:31;;;;;;;3.83;2.90;;;;;;;;;;10366021;28;20046;-66
2022/06/14 01:10:58;;;;;;;4.15;3.13;;;;;;;;;;10352096;28;20342;-66
2022/06/14 01:16:00;;;;;;;5.53;3.17;;;;;;;;;;10374040;28;20046;-66
2022/06/14 01:21:03;;;;;;;9.18;3.25;;;;;;;;;;10368925;28;20257;-66
2022/06/14 01:26:13;;;;;;;3.53;3.05;;;;;;;;;;10368552;28;20061;-66
2022/06/14 01:31:18;;;;;;;4.47;2.90;;;;;;;;;;10338244;28;20257;-66
2022/06/14 01:36:24;;;;;;;4.97;3.17;;;;;;;;;;10373311;28;20330;-66
2022/06/14 01:41:38;;;;;;;4.50;2.90;;;;;;;;;;10364734;28;20054;-66
2022/06/14 01:46:47;;;;;;;2.40;2.25;;;;;;;;;;10319069;28;20059;-66
2022/06/14 01:52:02;;;;;;;4.15;2.60;;;;;;;;;;10347139;28;20235;-66
2022/06/14 01:57:11;;;;;;;3.08;2.72;;;;;;;;;;10358842;28;20082;-67
2022/06/14 02:02:23;;;;;;;4.90;3.03;;;;;;;;;;10372503;28;20246;-66
2022/06/14 02:07:35;;;;;;;6.75;2.63;;;;;;;;;;10371904;28;20048;-66
2022/06/14 02:12:45;;;;;;;4.45;2.60;;;;;;;;;;10371598;28;20054;-66
2022/06/14 02:17:53;;;;;;;3.13;2.60;;;;;;;;;;10371592;28;20038;-66
2022/06/14 02:23:02;;;;;;;3.38;2.75;;;;;;;;;;10360397;28;20062;-66
2022/06/14 02:28:10;;;;;;;2.78;2.45;;;;;;;;;;10371227;28;20064;-66
2022/06/14 02:33:19;;;;;;;3.83;3.08;;;;;;;;;;10370331;28;20042;-65
2022/06/14 02:38:29;;;;;;;3.05;2.10;;;;;;;;;;10357265;28;20050;-65
2022/06/14 02:43:37;;;;;;;2.92;2.58;;;;;;;;;;10371148;28;20053;-64
2022/06/14 02:48:45;;;;;;;3.38;2.45;;;;;;;;;;10356874;28;20058;-66
2022/06/14 02:53:55;;;;;;;4.90;2.40;;;;;;;;;;10370535;28;20053;-65
2022/06/14 02:59:23;;;;;;;3.28;2.30;;;;;;;;;;10355955;28;20054;-65
2022/06/14 03:04:48;;;;;;;2.50;2.30;;;;;;;;;;10355222;28;20384;-66
2022/06/14 03:10:10;;;;;;;4.05;2.55;;;;;;;;;;10356041;28;20452;-67
2022/06/14 03:15:39;;;;;;;2.47;2.28;;;;;;;;;;10355220;28;20050;-65
2022/06/14 03:21:12;;;;;;;4.35;4.05;;;;;;;;;;10330206;28;20317;-66
2022/06/14 03:26:23;;;;;;;2.92;2.72;;;;;;;;;;10369114;28;20045;-67
2022/06/14 03:31:33;;;;;;;5.38;5.05;;;;;;;;;;10368819;28;20042;-66
2022/06/14 03:36:37;;;;;;;8.63;7.78;;;;;;;;;;10364370;28;20039;-66
2022/06/14 03:41:43;;;;;;;2.60;2.05;;;;;;;;;;10366349;28;20046;-66
2022/06/14 03:47:08;;;;;;;1.70;1.60;;;;;;;;;;10351422;28;20042;-67
2022/06/14 03:52:27;;;;;;;2.15;1.75;;;;;;;;;;10368100;28;20073;-66
2022/06/14 03:57:46;;;;;;;2.03;1.75;;;;;;;;;;10332018;28;20062;-66
2022/06/14 04:03:04;;;;;;;2.35;1.30;;;;;;;;;;10363617;28;20074;-66
2022/06/14 04:08:16;;;;;;;2.53;1.35;;;;;;;;;;10327683;28;20281;-66
2022/06/14 04:13:28;;;;;;;3.63;1.77;;;;;;;;;;10366603;28;20199;-66
2022/06/14 04:18:47;;;;;;;2.05;1.02;;;;;;;;;;10353901;28;20057;-66
2022/06/14 04:23:58;;;;;;;6.07;2.65;;;;;;;;;;10354751;28;20081;-67
2022/06/14 04:29:09;;;;;;;1.70;1.60;;;;;;;;;;10366673;28;20281;-67
2022/06/14 04:34:21;;;;;;;2.05;1.50;;;;;;;;;;10353147;28;20057;-67
2022/06/14 04:39:28;;;;;;;1.42;1.33;;;;;;;;;;10367054;28;20038;-67
2022/06/14 04:44:39;;;;;;;1.60;0.98;;;;;;;;;;10351612;28;20053;-68
2022/06/14 04:49:48;;;;;;;4.68;1.00;;;;;;;;;;10352895;28;20126;-67
2022/06/14 04:54:53;;;;;;;;;;;;;;;;;;10352952;28;20062;-67
2022/06/14 05:00:05;;;;;;;2.60;1.23;;;;;;;;;;10352586;28;19918;-67
2022/06/14 05:05:14;;;;;;;4.10;1.40;;;;;;;;;;10352037;28;20314;-67
2022/06/14 05:10:19;;;;;;;2.85;1.30;;;;;;;;;;10364556;28;20206;-68
2022/06/14 05:15:26;;;;;;;0.17;0.17;;;;;;;;;;10342881;28;20062;-67
2022/06/14 05:20:37;;;;;;;0.00;0.00;;;;;;;;;;10357117;28;20046;-68
2022/06/14 05:25:48;;;;;;;0.00;0.00;;;;;;;;;;10278468;28;20055;-67
2022/06/14 05:30:56;;;;;;;0.00;0.00;;;;;;;;;;10275925;28;20055;-66
2022/06/14 05:36:05;;;;;;;0.00;0.00;;;;;;;;;;10269633;29;20055;-67
2022/06/14 05:41:13;;;;;;;0.10;0.10;;;;;;;;;;10268649;28;20247;-67
2022/06/14 05:46:24;;;;;;;0.17;0.17;;;;;;;;;;10268920;28;20262;-67
2022/06/14 05:51:34;;;;;;;0.20;0.20;;;;;;;;;;10281713;29;20327;-67
2022/06/14 05:56:42;;;;;;;0.30;0.30;;;;;;;;;;10281481;28;20247;-67
2022/06/14 06:01:48;;;;;;;0.40;0.40;;;;;;;;;;10274792;28;20350;-69
2022/06/14 06:06:58;;;;;;;0.50;0.50;;;;;;;;;;10276043;29;20055;-69
2022/06/14 06:12:10;;;;;;;0.70;0.70;;;;;;;;;;10268074;29;20230;-68
2022/06/14 06:17:17;;;;;;;0.67;0.67;;;;;;;;;;10285432;28;20051;-69
2022/06/14 06:22:28;;;;;;;0.90;0.90;;;;;;;;;;10308852;28;20333;-69
2022/06/14 06:27:36;;;;;;;1.40;1.40;;;;;;;;;;10369170;28;20046;-67
2022/06/14 06:32:38;;;;;;;2.10;2.10;;;;;;;;;;10368404;28;20061;-68
2022/06/14 06:37:47;;;;;;;3.13;3.03;;;;;;;;;;10354256;28;20054;-70
2022/06/14 06:42:55;;;;;;;3.05;2.95;;;;;;;;;;10367024;28;20066;-69
2022/06/14 06:48:03;;;;;;;3.30;3.20;;;;;;;;;;10356943;28;20058;-71
2022/06/14 06:53:12;;;;;;;1.50;1.50;;;;;;;;;;10370750;28;20046;-70
2022/06/14 06:58:23;;;;;;;2.60;2.60;;;;;;;;;;10367955;28;20038;-68
2022/06/14 07:03:33;;;;;;;1.50;1.50;;;;;;;;;;10347132;28;20356;-69
2022/06/14 07:08:44;;;;;;;6.22;6.03;;;;;;;;;;10347414;28;20058;-67
2022/06/14 07:13:53;;;;;;;8.20;7.90;;;;;;;;;;10352484;28;20093;-69
2022/06/14 07:19:03;;;;;;;0.22;0.22;;;;;;;;;;10346264;28;20050;-70
2022/06/14 07:24:11;;;;;;;0.10;0.10;;;;;;;;;;10352246;28;20058;-68
2022/06/14 07:29:18;;;;;;;0.00;0.00;;;;;;;;;;10365795;28;20045;-67
2022/06/14 07:34:20;;;;;;;0.00;0.00;;;;;;;;;;10353045;28;20049;-67
2022/06/14 07:39:33;;;;;;;0.00;0.00;;;;;;;;;;10353615;28;20237;-68
2022/06/14 07:44:43;;;;;;;0.00;0.00;;;;;;;;;;10352685;28;20330;-68
2022/06/14 07:49:54;;;;;;;0.00;0.00;;;;;;;;;;10351437;28;20277;-68
2022/06/14 07:55:08;;;;;;;0.00;0.00;;;;;;;;;;10365787;28;20057;-67
2022/06/14 08:05:38;;;;;;;0.00;0.00;;;;;;;;;;10352942;28;20238;-68
2022/06/14 08:10:49;;;;;;;1.02;0.47;;;;;;;;;;10352538;28;20233;-68
2022/06/14 08:15:55;;;;;;;0.88;0.73;;;;;;;;;;10354941;28;20402;-68
2022/06/14 08:21:03;;;;;;;1.52;1.00;;;;;;;;;;10351538;28;20265;-68
2022/06/14 08:26:13;;;;;;;2.55;1.00;;;;;;;;;;10352127;28;20050;-68
2022/06/14 08:31:19;;;;;;;2.47;1.45;;;;;;;;;;10360387;28;20038;-67
2022/06/14 08:36:31;;;;;;;2.80;2.70;;;;;;;;;;10364468;28;20321;-68
2022/06/14 08:41:46;;;;;;;0.00;0.00;;;;;;;;;;10351168;28;20241;-67
2022/06/14 08:47:02;;;;;;;0.00;0.00;;;;;;;;;;10363455;28;20054;-68
2022/06/14 08:52:42;;;;;;;0.20;0.10;;;;;;;;;;10358087;28;20237;-68
2022/06/14 08:58:09;;;;;;;0.20;0.20;;;;;;;;;;10357963;28;20043;-68
2022/06/14 09:03:34;;;;;;;0.35;0.15;;;;;;;;;;10362310;28;20062;-68
2022/06/14 09:09:10;;;;;;;0.80;0.43;;;;;;;;;;10321949;28;20054;-68
2022/06/14 09:14:37;;;;;;;0.63;0.43;;;;;;;;;;10346217;28;20057;-68
2022/06/14 09:19:57;;;;;;;0.00;0.00;;;;;;;;;;10350877;28;20050;-69
2022/06/14 09:25:16;;;;;;;0.00;0.00;;;;;;;;;;10347791;28;20340;-68
2022/06/14 09:30:39;;;;;;;0.00;0.00;;;;;;;;;;10343714;28;20061;-68
2022/06/14 09:36:07;;;;;;;0.00;0.00;;;;;;;;;;10349425;28;20054;-68
2022/06/14 09:41:24;;;;;;;0.00;0.00;;;;;;;;;;10370248;28;20039;-68
2022/06/14 09:46:44;;;;;;;0.00;0.00;;;;;;;;;;10364104;28;20238;-69
2022/06/14 09:52:23;;;;;;;0.00;0.00;;;;;;;;;;10357191;28;20057;-68
2022/06/14 09:57:40;;;;;;;4.68;0.52;;;;;;;;;;10350039;28;20046;-68
2022/06/14 10:03:11;;;;;;;0.40;0.30;;;;;;;;;;10357846;28;20065;-68
2022/06/14 10:08:32;;;;;;;0.55;0.55;;;;;;;;;;10370070;28;20046;-68
2022/06/14 10:14:08;;;;;;;0.90;0.55;;;;;;;;;;10362504;28;20046;-68
2022/06/14 10:19:27;;;;;;;2.17;0.88;;;;;;;;;;10340049;28;20061;-68
2022/06/14 10:24:36;;;;;;;1.45;0.88;;;;;;;;;;10355287;28;20170;-67
2022/06/14 10:29:48;;;;;;;4.97;1.33;;;;;;;;;;10368850;28;20049;-68
2022/06/14 10:35:00;;;;;;;3.92;1.30;;;;;;;;;;10367548;28;20050;-68
2022/06/14 10:40:34;;;;;;;3.88;1.55;;;;;;;;;;10368343;28;20046;-67
2022/06/14 10:45:41;;;;;;;3.67;1.50;;;;;;;;;;10353163;28;20046;-67
2022/06/14 10:50:56;;;;;;;2.53;1.60;;;;;;;;;;10354850;28;20337;-67
2022/06/14 10:56:19;;;;;;;1.40;1.27;;;;;;;;;;10367533;28;20344;-67
2022/06/14 11:01:36;;;;;;;1.48;1.00;;;;;;;;;;10367179;28;20038;-67
2022/06/14 11:07:14;;;;;;;4.00;1.48;;;;;;;;;;10359998;28;20061;-67
2022/06/14 11:12:35;;;;;;;3.35;1.50;;;;;;;;;;10365684;28;20038;-68
2022/06/14 11:18:03;;;;;;;2.40;1.60;;;;;;;;;;10367049;28;20069;-67
2022/06/14 11:23:17;;;;;;;1.90;1.55;;;;;;;;;;10351134;28;20062;-68
2022/06/14 11:28:35;;;;;;;1.95;1.20;;;;;;;;;;10366894;28;20348;-67
2022/06/14 11:33:51;;;;;;;1.58;1.13;;;;;;;;;;10358491;28;20054;-68
2022/06/14 11:39:06;;;;;;;2.08;1.38;;;;;;;;;;10354325;28;20061;-67
2022/06/14 11:44:46;;;;;;;1.20;1.10;;;;;;;;;;10366122;28;20385;-67
2022/06/14 11:49:56;;;;;;;0.80;0.80;;;;;;;;;;10365515;28;20049;-67
2022/06/14 11:55:13;;;;;;;1.73;1.00;;;;;;;;;;10344008;28;20071;-67
2022/06/14 12:00:29;;;;;;;1.35;1.00;;;;;;;;;;10357641;28;20046;-69
2022/06/14 12:05:45;;;;;;;0.75;0.75;;;;;;;;;;10365633;28;20333;-67
2022/06/14 12:10:53;;;;;;;2.25;1.00;;;;;;;;;;10364867;28;20338;-68
2022/06/14 12:16:02;;;;;;;4.53;1.05;;;;;;;;;;10366544;28;20054;-67
2022/06/14 12:21:11;;;;;;;0.98;0.90;;;;;;;;;;10353045;28;20254;-66
2022/06/14 12:26:38;;;;;;;6.32;1.45;;;;;;;;;;10350329;28;20341;-67
2022/06/14 12:31:53;;;;;;;4.60;1.70;;;;;;;;;;10364906;28;20081;-68
2022/06/14 12:37:18;;;;;;;2.80;1.20;;;;;;;;;;10350898;28;20057;-68
2022/06/14 12:42:28;;;;;;;1.30;1.20;;;;;;;;;;10359033;28;20042;-68
2022/06/14 12:47:39;;;;;;;3.25;1.50;;;;;;;;;;10350592;28;20062;-68
2022/06/14 12:52:45;;;;;;;3.30;1.45;;;;;;;;;;10363632;28;20045;-68
2022/06/14 12:58:14;;;;;;;4.90;1.73;;;;;;;;;;10357710;28;20042;-67
2022/06/14 13:03:34;;;;;;;2.42;1.30;;;;;;;;;;10363798;28;20069;-68
2022/06/14 13:08:46;;;;;;;2.33;1.45;;;;;;;;;;10367977;28;20047;-67
2022/06/14 13:14:09;;;;;;;2.88;1.90;;;;;;;;;;10369844;28;20241;-70
2022/06/14 13:19:18;;;;;;;4.85;1.80;;;;;;;;;;10351741;28;20050;-70
2022/06/14 13:24:29;;;;;;;4.53;1.65;;;;;;;;;;10351237;28;20061;-70
2022/06/14 13:29:54;;;;;;;8.10;1.67;;;;;;;;;;10367599;28;20051;-70
2022/06/14 13:35:12;;;;;;;6.78;1.35;;;;;;;;;;10367151;28;20050;-70
2022/06/14 13:40:22;;;;;;;7.20;2.60;;;;;;;;;;10362092;28;20062;-68
2022/06/14 13:45:32;;;;;;;4.07;1.73;;;;;;;;;;10362190;28;20064;-68
2022/06/14 13:50:42;;;;;;;5.80;2.03;;;;;;;;;;10394087;28;20037;-69
2022/06/14 13:55:48;;;;;;;1.58;1.38;;;;;;;;;;10373021;28;20046;-68
2022/06/14 14:00:57;;;;;;;4.07;1.90;;;;;;;;;;10370193;28;20290;-68
2022/06/14 14:06:09;;;;;;;1.95;1.55;;;;;;;;;;10377531;28;20051;-69
2022/06/14 14:11:22;;;;;;;3.20;1.80;;;;;;;;;;10385887;28;20084;-68
2022/06/14 14:16:33;;;;;;;2.47;1.70;;;;;;;;;;10375303;28;20242;-68
2022/06/14 14:21:44;;;;;;;2.38;1.50;;;;;;;;;;10363616;28;20050;-69
2022/06/14 14:26:51;;;;;;;2.40;1.63;;;;;;;;;;10363671;28;20097;-68
2022/06/14 14:31:58;;;;;;;3.40;1.58;;;;;;;;;;10374454;28;20037;-72
2022/06/14 14:37:12;;;;;;;2.35;1.35;;;;;;;;;;10385075;28;20070;-68
2022/06/14 14:42:40;;;;;;;2.00;1.48;;;;;;;;;;10379796;28;20049;-68
2022/06/14 14:47:48;;;;;;;3.67;1.42;;;;;;;;;;10370352;28;20062;-67
2022/06/14 14:53:00;;;;;;;2.83;1.48;;;;;;;;;;10358578;28;20218;-68
2022/06/14 14:58:11;;;;;;;3.40;1.77;;;;;;;;;;10370057;28;20057;-67
2022/06/14 15:08:49;;;;;;;1.67;1.35;;;;;;;;;;10363768;28;20242;-69
2022/06/14 15:13:54;;;;;;;3.90;1.73;;;;;;;;;;10362658;28;20062;-68
2022/06/14 15:24:35;;;;;;;3.83;1.50;;;;;;;;;;10272698;28;20306;-68
2022/06/14 15:29:39;;;;;;;3.75;1.70;;;;;;;;;;10276717;28;20055;-68
2022/06/14 15:34:45;;;;;;;2.63;1.38;;;;;;;;;;10271193;28;20052;-68
2022/06/14 15:39:55;;;;;;;2.00;1.77;;;;;;;;;;10249039;29;20051;-67
2022/06/14 15:44:59;;;;;;;1.92;1.50;;;;;;;;;;10274205;28;20067;-69
2022/06/14 15:50:02;;;;;;;3.15;2.17;;;;;;;;;;10278335;28;20059;-68
2022/06/14 15:55:10;;;;;;;7.20;2.77;;;;;;;;;;10274042;28;20063;-68
2022/06/14 16:00:18;;;;;;;7.28;2.38;;;;;;;;;;10367320;28;20104;-69
2022/06/14 16:05:23;;;;;;;8.73;1.98;;;;;;;;;;10365978;28;20080;-68
2022/06/14 16:10:30;;;;;;;2.70;1.80;;;;;;;;;;10363577;28;20230;-69
2022/06/14 16:15:46;;;;;;;2.22;1.80;;;;;;;;;;10315506;28;20058;-69
2022/06/14 16:21:03;;;;;;;3.42;2.05;;;;;;;;;;10370412;28;20045;-68
2022/06/14 16:26:16;;;;;;;3.53;1.75;;;;;;;;;;10391881;28;20042;-69
2022/06/14 16:31:30;;;;;;;2.92;2.10;;;;;;;;;;10353852;28;20049;-69
2022/06/14 16:36:37;;;;;;;4.65;2.13;;;;;;;;;;10352506;28;20066;-68
2022/06/14 16:41:52;;;;;;;2.88;1.92;;;;;;;;;;10327253;28;20380;-68
2022/06/14 16:47:00;;;;;;;4.72;2.33;;;;;;;;;;10350117;28;20046;-69
2022/06/14 16:52:09;;;;;;;8.88;2.42;;;;;;;;;;10362461;28;20384;-68
2022/06/14 16:57:22;;;;;;;5.65;2.30;;;;;;;;;;10397314;28;20053;-68
2022/06/14 17:02:35;;;;;;;3.23;2.03;;;;;;;;;;10393566;28;20046;-68
2022/06/14 17:07:46;;;;;;;3.70;1.87;;;;;;;;;;10367148;28;20046;-68
2022/06/14 17:13:07;;;;;;;2.55;2.10;;;;;;;;;;10367094;28;20292;-68
2022/06/14 17:18:15;;;;;;;2.10;1.50;;;;;;;;;;10365899;28;20058;-69
2022/06/14 17:23:26;;;;;;;3.38;1.75;;;;;;;;;;10353394;28;20058;-69
2022/06/14 17:34:08;;;;;;;3.83;2.33;;;;;;;;;;10306144;28;20079;-69
2022/06/14 17:39:13;;;;;;;5.22;1.80;;;;;;;;;;10319707;28;20106;-69
2022/06/14 17:44:21;;;;;;;2.95;1.60;;;;;;;;;;10324443;28;20046;-68
2022/06/14 17:49:29;;;;;;;2.38;1.85;;;;;;;;;;10306396;28;20051;-68
2022/06/14 17:54:39;;;;;;;2.95;2.10;;;;;;;;;;10316123;28;20062;-68
2022/06/14 17:59:59;;;;;;;2.17;1.80;;;;;;;;;;10315346;28;20061;-67
2022/06/14 18:05:04;;;;;;;2.08;1.77;;;;;;;;;;10331740;28;20249;-66
2022/06/14 18:10:11;;;;;;;2.10;1.77;;;;;;;;;;10371882;28;20085;-66
2022/06/14 18:15:24;;;;;;;7.93;1.95;;;;;;;;;;10365146;28;20050;-67
2022/06/14 18:26:21;;;;;;;4.32;2.08;;;;;;;;;;10353380;28;20058;-68
2022/06/14 18:31:29;;;;;;;2.35;1.95;;;;;;;;;;10359957;28;20054;-68
2022/06/14 18:36:55;;;;;;;4.13;2.50;;;;;;;;;;10370336;28;20046;-68
2022/06/14 18:41:58;;;;;;;5.03;2.20;;;;;;;;;;10353639;28;20054;-67
2022/06/14 18:47:30;;;;;;;3.42;2.00;;;;;;;;;;10371623;28;20046;-68
2022/06/14 18:52:36;;;;;;;4.28;2.78;;;;;;;;;;10369721;28;20062;-68
2022/06/14 18:57:46;;;;;;;3.10;2.20;;;;;;;;;;10352460;28;20047;-67
2022/06/14 19:02:50;;;;;;;3.50;2.08;;;;;;;;;;10371454;28;20050;-66
2022/06/14 19:08:01;;;;;;;2.30;2.00;;;;;;;;;;10367974;28;20046;-67
2022/06/14 19:13:13;;;;;;;3.15;1.88;;;;;;;;;;10370417;28;20051;-69
2022/06/14 19:18:32;;;;;;;2.28;1.98;;;;;;;;;;10371125;28;20245;-67
2022/06/14 19:24:01;;;;;;;7.55;2.40;;;;;;;;;;10337678;28;20074;-68
2022/06/14 19:29:18;;;;;;;3.17;2.08;;;;;;;;;;10352613;28;20334;-68
2022/06/14 19:34:27;;;;;;;2.33;2.10;;;;;;;;;;10352288;28;20054;-68
2022/06/14 19:39:32;;;;;;;3.15;2.10;;;;;;;;;;10337295;28;20050;-68
2022/06/14 19:44:41;;;;;;;3.28;2.38;;;;;;;;;;10365898;28;20057;-68
2022/06/14 20:00:34;;;;;;;2.83;2.20;;;;;;;;;;10358562;28;20058;-67
2022/06/14 20:05:42;;;;;;;3.20;2.13;;;;;;;;;;10367270;28;20330;-71
2022/06/14 20:10:48;;;;;;;2.65;2.28;;;;;;;;;;10366882;28;20246;-67
2022/06/14 20:15:57;;;;;;;2.42;2.10;;;;;;;;;;10349772;28;20065;-67
2022/06/14 20:21:13;;;;;;;2.90;2.70;;;;;;;;;;10358705;28;20341;-69
2022/06/14 20:26:16;;;;;;;2.78;2.45;;;;;;;;;;10366256;28;20073;-68
2022/06/14 20:31:20;;;;;;;3.80;2.60;;;;;;;;;;10354158;28;20053;-67
2022/06/14 20:36:27;;;;;;;2.92;2.70;;;;;;;;;;10362378;28;20054;-68
2022/06/14 20:41:32;;;;;;;5.43;3.10;;;;;;;;;;10364976;28;20049;-68
2022/06/14 20:46:35;;;;;;;3.78;2.60;;;;;;;;;;10365237;28;20330;-67
2022/06/14 20:51:48;;;;;;;4.67;3.30;;;;;;;;;;10367098;28;20042;-67
2022/06/14 20:57:00;;;;;;;5.43;3.75;;;;;;;;;;10366458;28;20130;-67
2022/06/14 21:02:03;;;;;;;5.13;3.58;;;;;;;;;;10352631;28;20289;-68
2022/06/14 21:07:08;;;;;;;4.32;2.78;;;;;;;;;;10365532;28;20054;-67
2022/06/14 21:12:15;;;;;;;7.00;3.27;;;;;;;;;;10353136;28;20050;-68
2022/06/14 21:17:22;;;;;;;2.90;2.58;;;;;;;;;;10339138;28;20046;-67
2022/06/14 21:22:27;;;;;;;3.03;2.70;;;;;;;;;;10357640;28;20064;-68
2022/06/14 21:27:38;;;;;;;4.97;3.20;;;;;;;;;;10366604;28;20233;-66
2022/06/14 21:33:02;;;;;;;4.18;2.70;;;;;;;;;;10373537;28;20233;-68
2022/06/14 21:38:08;;;;;;;2.72;2.53;;;;;;;;;;10372699;28;20042;-68
2022/06/14 21:43:15;;;;;;;5.80;3.08;;;;;;;;;;10372109;28;20049;-67
2022/06/14 21:48:21;;;;;;;2.90;2.65;;;;;;;;;;10360061;28;20057;-69
2022/06/14 21:53:28;;;;;;;3.35;2.92;;;;;;;;;;10373321;28;20042;-69
2022/06/14 21:58:33;;;;;;;3.38;2.55;;;;;;;;;;10372073;28;20114;-67
2022/06/14 22:03:54;;;;;;;5.13;2.85;;;;;;;;;;10373933;28;20114;-66
2022/06/14 22:09:00;;;;;;;3.13;2.83;;;;;;;;;;10342961;28;20046;-67
2022/06/14 22:14:02;;;;;;;6.65;3.22;;;;;;;;;;10362256;28;20219;-67
2022/06/14 22:19:05;;;;;;;3.78;3.10;;;;;;;;;;10372903;28;20057;-67
2022/06/14 22:29:30;;;;;;;3.28;2.97;;;;;;;;;;10371562;28;20230;-67
2022/06/14 22:34:39;;;;;;;2.65;2.45;;;;;;;;;;10371460;28;20057;-67
2022/06/14 22:39:43;;;;;;;7.90;3.50;;;;;;;;;;10370652;28;20050;-67
2022/06/14 22:44:46;;;;;;;5.83;3.10;;;;;;;;;;10370948;28;20054;-68
2022/06/14 22:49:48;;;;;;;6.95;3.20;;;;;;;;;;10357387;28;20303;-66
2022/06/14 22:54:52;;;;;;;3.15;2.67;;;;;;;;;;10371064;28;20157;-67
2022/06/14 22:59:54;;;;;;;6.63;3.08;;;;;;;;;;10369607;28;20050;-67
2022/06/14 23:04:57;;;;;;;4.82;3.03;;;;;;;;;;10369467;28;20042;-68
2022/06/14 23:10:01;;;;;;;7.30;3.20;;;;;;;;;;10369427;28;20069;-68
2022/06/14 23:15:05;;;;;;;;;;;;;;;;;;10369256;28;20345;-67
2022/06/14 23:20:08;;;;;;;3.85;2.90;;;;;;;;;;10367129;28;20205;-66
2022/06/14 23:25:12;;;;;;;4.43;3.40;;;;;;;;;;10355828;28;20354;-67
2022/06/14 23:30:16;;;;;;;5.20;3.42;;;;;;;;;;10368507;28;20245;-67
2022/06/14 23:35:18;;;;;;;3.03;2.72;;;;;;;;;;10367645;28;20042;-67
2022/06/14 23:40:22;;;;;;;6.60;3.47;;;;;;;;;;10366909;28;20065;-68
2022/06/14 23:45:24;;;;;;;3.70;3.13;;;;;;;;;;10367520;28;20041;-68
2022/06/14 23:50:27;;;;;;;5.05;3.42;;;;;;;;;;10367135;28;20054;-68
2022/06/14 23:55:31;;;;;;;7.97;3.65;;;;;;;;;;10353740;28;20062;-68
